Time;durP1;ratioP1;P1;durP2;ratioP2;P2;SDS_P1;SDS_P2;PMS_P1;PMS_P2;Temp;Humidity;BMP_temperature;BMP_pressure;BME280_temperature;BME280_humidity;BME280_pressure;Samples;Min_cycle;Max_cycle;Signal;HPM_P1;HPM_P2
2021/09/11 00:01:04;;;;;;;28.07;14.35;;;;;;;12.54;79.73;100986.88;1904391;75;21159;-65
2021/09/11 00:03:33;;;;;;;37.30;18.05;;;;;;;12.55;79.56;100992.58;1904368;75;21112;-65
2021/09/11 00:06:02;;;;;;;29.42;13.35;;;;;;;12.54;79.33;100981.16;1904393;74;21128;-64
2021/09/11 00:08:31;;;;;;;35.45;12.43;;;;;;;12.54;79.18;100981.60;1904376;75;21049;-65
2021/09/11 00:11:00;;;;;;;28.02;11.48;;;;;;;12.52;79.12;100980.81;1904314;74;21171;-64
2021/09/11 00:13:29;;;;;;;36.25;17.73;;;;;;;12.51;78.99;100979.11;1904491;75;21120;-64
2021/09/11 00:15:58;;;;;;;36.05;18.65;;;;;;;12.50;78.92;100972.11;1904342;73;21135;-65
2021/09/11 00:18:26;;;;;;;43.55;20.45;;;;;;;12.47;79.08;100978.86;1904472;75;21116;-65
2021/09/11 00:20:55;;;;;;;42.70;23.12;;;;;;;12.45;79.45;100974.08;1904403;75;21011;-65
2021/09/11 00:23:24;;;;;;;46.55;27.35;;;;;;;12.43;79.45;100974.61;1904312;74;21049;-65
2021/09/11 00:25:53;;;;;;;50.33;26.97;;;;;;;12.43;79.36;100975.93;1904488;75;21042;-65
2021/09/11 00:28:21;;;;;;;56.45;34.60;;;;;;;12.43;79.22;100974.61;1904367;74;21053;-65
2021/09/11 00:30:50;;;;;;;60.12;35.70;;;;;;;12.41;79.28;100975.98;1904392;75;21116;-65
2021/09/11 00:33:19;;;;;;;60.33;38.13;;;;;;;12.36;79.80;100974.88;1904400;75;21167;-65
2021/09/11 00:35:48;;;;;;;59.20;36.88;;;;;;;12.35;79.50;100974.47;1904294;74;21030;-65
2021/09/11 00:38:17;;;;;;;51.10;32.58;;;;;;;12.28;79.96;100974.37;1904438;75;21093;-66
2021/09/11 00:40:45;;;;;;;52.45;32.55;;;;;;;12.28;79.84;100971.73;1904462;75;21026;-65
2021/09/11 00:43:22;;;;;;;62.33;36.88;;;;;;;12.30;79.70;100973.83;1904375;75;21062;-65
2021/09/11 00:45:51;;;;;;;64.25;36.13;;;;;;;12.31;79.72;100972.05;1904370;74;21530;-65
2021/09/11 00:48:20;;;;;;;58.23;31.95;;;;;;;12.31;79.56;100958.38;1904291;75;21566;-66
2021/09/11 00:50:49;;;;;;;56.88;29.45;;;;;;;12.33;79.49;100961.80;1904356;75;21198;-65
2021/09/11 00:53:21;;;;;;;41.05;21.60;;;;;;;12.31;79.71;100962.33;1904362;74;21127;-65
2021/09/11 00:55:50;;;;;;;40.33;20.00;;;;;;;12.33;79.64;100960.48;1904468;75;21078;-65
2021/09/11 00:58:18;;;;;;;37.95;18.60;;;;;;;12.35;79.52;100959.09;1904374;75;21010;-65
2021/09/11 01:00:47;;;;;;;43.40;20.40;;;;;;;12.34;79.86;100957.41;1904319;75;21069;-65
2021/09/11 01:03:16;;;;;;;40.63;23.55;;;;;;;12.30;79.87;100956.67;1904341;74;21101;-65
2021/09/11 01:05:46;;;;;;;36.93;20.92;;;;;;;12.32;79.67;100952.63;1904371;75;21050;-65
2021/09/11 01:08:14;;;;;;;49.70;20.80;;;;;;;12.33;79.59;100957.84;1904376;74;21468;-65
2021/09/11 01:10:43;;;;;;;27.58;12.53;;;;;;;12.34;79.51;100963.53;1904327;75;21054;-65
2021/09/11 01:13:12;;;;;;;23.67;9.70;;;;;;;12.31;79.61;100958.38;1904390;74;21457;-65
2021/09/11 01:15:43;;;;;;;20.77;8.70;;;;;;;12.28;79.65;100958.52;1904280;75;21409;-65
2021/09/11 01:18:13;;;;;;;20.72;8.98;;;;;;;12.27;79.83;100953.30;1920175;74;21096;-65
2021/09/11 01:20:42;;;;;;;33.13;14.65;;;;;;;12.25;79.64;100952.05;1926220;74;21456;-65
2021/09/11 01:23:11;;;;;;;29.48;15.15;;;;;;;12.24;79.72;100954.74;1926405;74;21045;-65
2021/09/11 01:25:40;;;;;;;26.87;10.93;;;;;;;12.21;79.88;100964.98;1926317;74;21077;-65
2021/09/11 01:28:09;;;;;;;24.60;9.10;;;;;;;12.16;80.24;100957.71;1926178;74;21054;-65
2021/09/11 01:30:37;;;;;;;30.65;11.20;;;;;;;12.13;80.05;100943.31;1926442;74;21021;-65
2021/09/11 01:33:06;;;;;;;21.85;10.93;;;;;;;12.10;79.95;100935.08;1926309;74;21115;-65
2021/09/11 01:35:35;;;;;;;37.30;16.40;;;;;;;12.10;79.81;100935.08;1926298;74;21058;-65
2021/09/11 01:38:04;;;;;;;39.90;16.60;;;;;;;12.08;79.67;100930.77;1926223;74;21072;-65
2021/09/11 01:40:33;;;;;;;33.05;15.85;;;;;;;12.04;79.66;100937.95;1926200;74;21095;-65
2021/09/11 01:43:02;;;;;;;23.18;9.10;;;;;;;11.96;79.83;100951.47;1926403;74;21037;-65
2021/09/11 01:45:31;;;;;;;20.43;9.95;;;;;;;11.94;80.12;100958.59;1926294;74;21501;-65
2021/09/11 01:48:00;;;;;;;19.92;8.88;;;;;;;11.90;80.44;100958.33;1926238;74;21179;-65
2021/09/11 01:50:29;;;;;;;24.23;8.35;;;;;;;11.86;80.67;100963.75;1926433;74;21025;-65
2021/09/11 01:52:58;;;;;;;24.05;9.80;;;;;;;11.83;80.64;100966.06;1926240;74;21058;-66
2021/09/11 01:55:27;;;;;;;28.55;12.73;;;;;;;11.81;80.91;100967.91;1926224;74;21131;-65
2021/09/11 01:57:55;;;;;;;26.48;13.48;;;;;;;11.83;80.99;100966.06;1926269;74;21101;-65
2021/09/11 02:00:24;;;;;;;23.05;10.82;;;;;;;11.86;80.64;100966.39;1926445;74;21053;-65
2021/09/11 02:02:53;;;;;;;20.77;8.50;;;;;;;11.86;80.38;100964.63;1926317;74;21022;-64
2021/09/11 02:05:22;;;;;;;15.48;9.30;;;;;;;11.86;80.22;100965.95;1926340;74;21123;-65
2021/09/11 02:07:50;;;;;;;21.12;11.57;;;;;;;11.85;80.18;100966.86;1926206;74;21600;-65
2021/09/11 02:10:19;;;;;;;34.88;15.00;;;;;;;11.86;80.12;100965.95;1926297;74;20994;-65
2021/09/11 02:12:48;;;;;;;38.10;17.05;;;;;;;11.88;80.24;100962.78;1926282;74;21087;-64
2021/09/11 02:15:17;;;;;;;27.50;14.65;;;;;;;11.87;80.42;100965.02;1926294;74;21049;-64
2021/09/11 02:17:46;;;;;;;30.35;14.50;;;;;;;11.87;80.89;100969.44;1926717;73;21081;-65
2021/09/11 02:20:15;;;;;;;25.55;13.85;;;;;;;11.86;80.94;100972.55;1928506;74;21031;-64
2021/09/11 02:22:44;;;;;;;32.30;13.08;;;;;;;11.86;80.88;100979.14;1928559;74;21108;-64
2021/09/11 02:25:13;;;;;;;23.30;11.97;;;;;;;11.81;81.24;100973.19;1928548;73;21006;-64
2021/09/11 02:27:41;;;;;;;28.80;12.80;;;;;;;11.82;81.01;100977.99;1928552;74;21066;-65
2021/09/11 02:30:11;;;;;;;22.25;10.88;;;;;;;11.80;81.00;100993.88;1928523;74;21143;-65
2021/09/11 02:32:40;;;;;;;21.42;11.45;;;;;;;11.77;80.90;101006.75;1928532;74;21053;-66
2021/09/11 02:35:09;;;;;;;31.62;13.20;;;;;;;11.72;81.37;101011.80;1928508;74;21038;-65
2021/09/11 02:37:38;;;;;;;23.65;11.18;;;;;;;11.68;81.60;101019.45;1928544;74;21077;-63
2021/09/11 02:40:08;;;;;;;26.87;15.15;;;;;;;11.67;81.49;101005.38;1928470;74;21128;-63
2021/09/11 02:45:26;;;;;;;26.70;11.88;;;;;;;11.76;80.97;101008.97;1838007;78;21616;-63
2021/09/11 02:47:55;;;;;;;25.37;9.85;;;;;;;11.80;80.83;101008.39;1838085;78;21051;-63
2021/09/11 02:50:24;;;;;;;19.20;11.35;;;;;;;11.81;80.82;101007.48;1856660;77;21049;-63
2021/09/11 02:52:53;;;;;;;27.62;10.75;;;;;;;11.83;80.70;101001.69;1856683;77;21013;-63
2021/09/11 02:55:22;;;;;;;27.22;12.07;;;;;;;11.85;80.68;100987.97;1856831;77;21009;-63
2021/09/11 02:57:50;;;;;;;26.52;13.72;;;;;;;11.87;80.54;100976.89;1856644;77;21213;-63
2021/09/11 03:00:19;;;;;;;29.35;12.98;;;;;;;11.92;80.44;100971.47;1856700;77;21516;-62
2021/09/11 03:02:48;;;;;;;28.90;12.40;;;;;;;11.94;80.44;100971.80;1856857;77;21140;-63
2021/09/11 03:05:17;;;;;;;28.77;13.30;;;;;;;11.98;80.41;100978.66;1856788;77;21143;-63
2021/09/11 03:07:46;;;;;;;40.98;20.95;;;;;;;12.01;80.27;100976.80;1856687;76;21045;-63
2021/09/11 03:10:14;;;;;;;42.75;20.97;;;;;;;12.04;80.18;100978.86;1856731;76;21041;-62
2021/09/11 03:12:43;;;;;;;37.20;19.40;;;;;;;12.08;80.10;100983.55;1856694;77;21006;-63
2021/09/11 03:15:12;;;;;;;24.02;12.68;;;;;;;12.11;80.10;100986.08;1856921;77;21483;-62
2021/09/11 03:17:41;;;;;;;17.15;9.78;;;;;;;12.12;80.13;100986.48;1856589;77;21166;-63
2021/09/11 03:20:10;;;;;;;23.65;9.40;;;;;;;12.10;80.32;100984.38;1856645;77;21061;-63
2021/09/11 03:22:39;;;;;;;19.42;9.68;;;;;;;12.10;80.23;100986.55;1856710;77;21041;-64
2021/09/11 03:25:08;;;;;;;21.42;11.40;;;;;;;12.11;80.19;100976.84;1856688;77;21472;-63
2021/09/11 03:27:37;;;;;;;34.63;14.40;;;;;;;12.12;80.20;100982.53;1856780;77;21103;-63
2021/09/11 03:30:07;;;;;;;30.70;17.15;;;;;;;12.15;80.09;100985.02;1856714;77;21033;-63
2021/09/11 03:32:36;;;;;;;31.62;14.10;;;;;;;12.18;80.05;100991.50;1856812;77;21165;-63
2021/09/11 03:35:06;;;;;;;25.45;11.53;;;;;;;12.21;80.00;100996.66;1856732;77;21114;-63
2021/09/11 03:37:35;;;;;;;23.07;10.30;;;;;;;12.23;79.90;101004.05;1856789;77;21120;-63
2021/09/11 03:40:04;;;;;;;21.70;9.30;;;;;;;12.22;80.21;101010.24;1856717;77;21139;-63
2021/09/11 03:42:33;;;;;;;16.90;8.70;;;;;;;12.21;80.33;101011.62;1856904;77;21070;-63
2021/09/11 03:45:02;;;;;;;24.12;9.23;;;;;;;12.23;80.14;101007.13;1852037;75;21147;-63
2021/09/11 03:47:31;;;;;;;22.27;9.58;;;;;;;12.24;80.02;101003.11;1856823;77;21105;-65
2021/09/11 03:49:59;;;;;;;21.02;9.18;;;;;;;12.27;79.89;100989.80;1856705;77;21010;-64
2021/09/11 03:52:28;;;;;;;24.55;9.43;;;;;;;12.30;79.84;100980.44;1856765;77;21088;-64
2021/09/11 03:54:56;;;;;;;20.60;8.95;;;;;;;12.33;79.74;100985.56;1856786;76;21037;-66
2021/09/11 03:57:27;;;;;;;22.15;9.20;;;;;;;12.32;79.72;100985.63;1856677;76;21038;-66
2021/09/11 03:59:56;;;;;;;20.02;9.70;;;;;;;12.34;79.74;100974.56;1856668;77;21526;-66
2021/09/11 04:02:24;;;;;;;20.15;10.05;;;;;;;12.34;79.79;100976.73;1856622;76;21115;-66
2021/09/11 04:04:53;;;;;;;20.95;9.05;;;;;;;12.36;79.85;100972.71;1856778;76;21111;-65
2021/09/11 04:07:22;;;;;;;22.62;9.88;;;;;;;12.41;79.83;100981.27;1856783;77;21069;-62
2021/09/11 04:09:52;;;;;;;17.75;8.53;;;;;;;12.44;79.78;100983.79;1856807;77;21076;-63
2021/09/11 04:12:21;;;;;;;24.95;9.93;;;;;;;12.49;79.86;100983.61;1856271;77;21096;-62
2021/09/11 04:14:50;;;;;;;19.35;10.03;;;;;;;12.51;79.98;100984.40;1856665;76;21065;-63
2021/09/11 04:17:18;;;;;;;30.68;13.35;;;;;;;12.55;79.85;100985.98;1856918;77;21487;-63
2021/09/11 04:19:47;;;;;;;34.63;13.10;;;;;;;12.57;79.74;100992.05;1856709;77;21065;-63
2021/09/11 04:22:16;;;;;;;31.90;12.23;;;;;;;12.61;79.65;100990.98;1856753;76;21180;-63
2021/09/11 04:24:45;;;;;;;25.52;11.55;;;;;;;12.64;79.61;100993.50;1856776;77;21044;-62
2021/09/11 04:27:14;;;;;;;27.65;12.33;;;;;;;12.70;79.51;101005.11;1856701;76;21045;-63
2021/09/11 04:29:43;;;;;;;22.90;10.82;;;;;;;12.72;79.43;101009.86;1856870;77;21147;-63
2021/09/11 04:32:12;;;;;;;27.52;11.03;;;;;;;12.78;79.47;101022.41;1856881;77;21518;-63
2021/09/11 04:34:41;;;;;;;25.65;10.53;;;;;;;12.79;79.62;101032.08;1856785;77;21033;-63
2021/09/11 04:37:15;;;;;;;42.25;13.30;;;;;;;12.85;79.55;101033.97;1856769;77;21131;-63
2021/09/11 04:39:43;;;;;;;29.23;13.10;;;;;;;12.91;79.65;101030.19;1856942;77;21041;-64
2021/09/11 04:42:12;;;;;;;27.58;12.20;;;;;;;12.98;79.43;101026.36;1856785;77;21170;-63
2021/09/11 04:44:40;;;;;;;24.90;11.15;;;;;;;13.06;79.19;101021.60;1856859;75;21041;-63
2021/09/11 04:47:09;;;;;;;20.72;9.58;;;;;;;13.15;78.98;101019.02;1856757;77;21069;-63
2021/09/11 04:49:38;;;;;;;17.35;8.55;;;;;;;13.25;78.81;101014.16;1856787;76;21119;-62
2021/09/11 04:52:07;;;;;;;19.65;9.80;;;;;;;13.35;78.68;101014.14;1856710;77;21119;-63
2021/09/11 04:54:36;;;;;;;19.57;9.25;;;;;;;13.47;78.50;101007.44;1856796;77;21612;-63
2021/09/11 04:57:05;;;;;;;20.43;8.15;;;;;;;13.60;78.37;101005.08;1856764;77;21069;-63
2021/09/11 04:59:34;;;;;;;19.35;8.05;;;;;;;13.70;78.30;100999.72;1856719;77;21037;-63
2021/09/11 05:02:03;;;;;;;18.77;8.00;;;;;;;13.78;78.16;100991.44;1856791;77;21069;-63
2021/09/11 05:04:32;;;;;;;24.52;7.83;;;;;;;13.87;78.01;100979.93;1856856;76;21090;-63
2021/09/11 05:07:03;;;;;;;22.27;8.68;;;;;;;13.98;77.91;100981.17;1856711;77;21104;-63
2021/09/11 05:09:31;;;;;;;19.45;8.38;;;;;;;14.07;77.80;100979.39;1856774;77;21061;-63
2021/09/11 05:12:04;;;;;;;20.30;8.20;;;;;;;14.15;77.70;100971.09;1856805;77;21069;-63
2021/09/11 05:14:31;;;;;;;20.23;7.83;;;;;;;14.22;77.60;100969.37;1856559;76;21045;-63
2021/09/11 05:17:00;;;;;;;23.77;8.15;;;;;;;14.29;77.45;100961.51;1856735;77;21464;-63
2021/09/11 05:19:29;;;;;;;19.70;7.87;;;;;;;14.34;77.24;100957.28;1856718;77;21111;-63
2021/09/11 05:21:57;;;;;;;25.37;7.47;;;;;;;14.37;77.07;100959.79;1856764;76;21041;-63
2021/09/11 05:24:26;;;;;;;33.53;13.30;;;;;;;14.37;76.90;100963.77;1856939;77;21116;-63
2021/09/11 05:26:55;;;;;;;22.05;10.28;;;;;;;14.40;76.72;100970.68;1856849;77;21064;-62
2021/09/11 05:29:24;;;;;;;24.23;10.63;;;;;;;14.43;76.58;100975.83;1856744;77;21053;-63
2021/09/11 05:31:53;;;;;;;32.85;12.00;;;;;;;14.43;76.34;100970.53;1856667;77;21081;-62
2021/09/11 05:34:21;;;;;;;24.27;10.65;;;;;;;14.45;76.13;100983.23;1856715;77;21171;-66
2021/09/11 05:36:50;;;;;;;19.85;9.50;;;;;;;14.50;75.94;100995.78;1856768;77;21103;-63
2021/09/11 05:39:19;;;;;;;19.60;8.90;;;;;;;14.54;75.72;101014.55;1856753;77;21045;-63
2021/09/11 05:41:48;;;;;;;32.95;9.50;;;;;;;14.58;75.57;101016.14;1856722;77;21154;-63
2021/09/11 05:44:16;;;;;;;17.15;8.43;;;;;;;14.65;75.40;101006.94;1856672;77;21127;-64
2021/09/11 05:46:45;;;;;;;22.10;9.15;;;;;;;14.73;75.13;101010.98;1856657;75;21206;-63
2021/09/11 05:49:13;;;;;;;23.83;8.63;;;;;;;14.79;74.85;101005.35;1856709;77;21056;-63
2021/09/11 05:51:42;;;;;;;20.45;7.87;;;;;;;14.86;74.75;101007.63;1856915;77;21092;-63
2021/09/11 05:54:11;;;;;;;20.80;8.83;;;;;;;14.97;74.70;101015.46;1856846;76;21009;-63
2021/09/11 05:56:43;;;;;;;21.93;9.43;;;;;;;15.09;74.62;101015.27;1856753;76;21065;-63
2021/09/11 05:59:11;;;;;;;24.37;8.25;;;;;;;15.20;74.56;101022.20;1856758;77;21142;-63
2021/09/11 06:01:40;;;;;;;23.30;9.08;;;;;;;15.27;74.39;101009.00;1856820;76;21045;-63
2021/09/11 06:04:09;;;;;;;24.23;9.90;;;;;;;15.34;74.19;101013.00;1856745;77;21123;-63
2021/09/11 06:06:37;;;;;;;26.12;9.65;;;;;;;15.43;73.96;101007.19;1856701;76;21119;-63
2021/09/11 06:09:07;;;;;;;22.58;9.60;;;;;;;15.50;73.66;101006.87;1856809;77;21065;-63
2021/09/11 06:11:36;;;;;;;22.27;9.83;;;;;;;15.60;73.34;101002.75;1856648;76;21476;-63
2021/09/11 06:14:05;;;;;;;27.35;10.72;;;;;;;15.71;73.06;100984.89;1856753;77;21139;-63
2021/09/11 06:16:34;;;;;;;34.58;11.70;;;;;;;15.87;72.80;100979.61;1856815;76;21045;-63
2021/09/11 06:19:02;;;;;;;42.15;10.85;;;;;;;16.14;72.60;100978.02;1856747;77;21166;-62
2021/09/11 06:21:31;;;;;;;23.18;8.73;;;;;;;16.54;72.23;100984.95;1856795;77;21135;-63
2021/09/11 06:24:00;;;;;;;26.50;8.70;;;;;;;16.92;71.83;101000.39;1856608;77;21017;-63
2021/09/11 06:26:28;;;;;;;27.67;8.45;;;;;;;17.07;70.96;100992.42;1856721;77;21065;-63
2021/09/11 06:28:58;;;;;;;23.40;9.10;;;;;;;17.17;70.43;101004.18;1856747;77;21045;-62
2021/09/11 06:31:26;;;;;;;30.17;8.90;;;;;;;17.28;69.77;101000.40;1856694;77;21045;-62
2021/09/11 06:33:55;;;;;;;30.80;9.15;;;;;;;17.63;69.83;101006.61;1865113;76;21085;-62
2021/09/11 06:36:24;;;;;;;34.92;10.13;;;;;;;18.07;69.48;101001.52;1888598;76;21475;-62
2021/09/11 06:38:52;;;;;;;33.00;9.35;;;;;;;18.32;67.71;101010.56;1888661;76;21057;-62
2021/09/11 06:41:22;;;;;;;31.33;10.30;;;;;;;18.37;67.03;101009.78;1888583;76;21131;-62
2021/09/11 06:43:51;;;;;;;24.10;10.08;;;;;;;18.44;67.13;101009.74;1888692;76;21100;-62
2021/09/11 06:46:20;;;;;;;35.08;9.43;;;;;;;18.48;67.17;101004.56;1889113;76;21066;-62
2021/09/11 06:48:48;;;;;;;29.05;9.68;;;;;;;18.51;67.12;101012.82;1894866;76;21131;-63
2021/09/11 06:51:17;;;;;;;30.48;9.00;;;;;;;18.56;66.97;101016.53;1894785;76;21522;-62
2021/09/11 06:53:45;;;;;;;21.00;8.83;;;;;;;18.44;66.75;101013.73;1894818;76;21022;-62
2021/09/11 06:56:14;;;;;;;19.85;8.30;;;;;;;18.38;66.67;101029.28;1894984;76;21452;-62
2021/09/11 06:58:43;;;;;;;26.23;7.47;;;;;;;18.29;66.62;101022.75;1894821;76;21166;-62
2021/09/11 07:01:12;;;;;;;27.70;8.10;;;;;;;18.17;66.61;101005.78;1894804;76;21061;-62
2021/09/11 07:03:45;;;;;;;21.90;8.88;;;;;;;18.09;66.73;101018.74;1894680;76;21029;-63
2021/09/11 07:06:12;;;;;;;29.67;8.93;;;;;;;17.99;66.84;101007.00;1894663;76;21073;-62
2021/09/11 07:08:41;;;;;;;29.32;9.13;;;;;;;17.92;67.13;101005.20;1894838;76;21092;-62
2021/09/11 07:11:14;;;;;;;28.47;9.55;;;;;;;17.86;67.17;101013.61;1894849;76;21029;-62
2021/09/11 07:13:43;;;;;;;27.90;9.65;;;;;;;17.74;67.01;101005.44;1894835;76;21076;-62
2021/09/11 07:16:12;;;;;;;27.42;9.60;;;;;;;17.72;67.12;100997.15;1894764;76;21111;-63
2021/09/11 07:18:40;;;;;;;33.70;8.55;;;;;;;17.70;67.12;100998.58;1894930;76;21045;-62
2021/09/11 07:21:10;;;;;;;31.62;8.85;;;;;;;17.70;67.13;101002.57;1894829;76;21127;-62
2021/09/11 07:23:38;;;;;;;27.48;7.22;;;;;;;17.74;67.23;100996.12;1894829;76;21480;-62
2021/09/11 07:26:07;;;;;;;18.65;7.10;;;;;;;17.83;67.18;100986.64;1894855;76;21095;-62
2021/09/11 07:28:36;;;;;;;21.45;6.65;;;;;;;17.84;66.98;100999.52;1894778;76;21025;-62
2021/09/11 07:31:04;;;;;;;22.58;7.87;;;;;;;17.88;66.90;100989.05;1894839;76;21033;-63
2021/09/11 07:33:33;;;;;;;27.17;9.45;;;;;;;17.86;66.71;100984.31;1894943;76;21072;-62
2021/09/11 07:36:02;;;;;;;21.68;8.83;;;;;;;17.83;66.77;100985.31;1894829;76;21021;-62
2021/09/11 07:38:30;;;;;;;19.10;8.25;;;;;;;17.86;66.93;100973.66;1894821;76;20997;-62
2021/09/11 07:40:59;;;;;;;16.52;7.08;;;;;;;17.89;67.02;100990.75;1894702;76;21156;-63
2021/09/11 07:43:28;;;;;;;17.85;8.23;;;;;;;17.81;66.95;100993.89;1894820;76;21133;-62
2021/09/11 07:45:57;;;;;;;22.40;8.15;;;;;;;17.72;67.03;100995.37;1894781;76;21127;-62
2021/09/11 07:48:26;;;;;;;22.70;8.80;;;;;;;17.64;67.11;100997.66;1890820;76;21147;-62
2021/09/11 07:50:55;;;;;;;15.55;8.05;;;;;;;17.58;67.18;100995.40;1888585;76;21151;-62
2021/09/11 07:53:23;;;;;;;32.48;9.80;;;;;;;17.51;67.31;100996.73;1888626;76;21061;-62
2021/09/11 07:55:52;;;;;;;12.58;6.10;;;;;;;17.48;67.48;101000.92;1888561;76;21117;-62
2021/09/11 07:58:21;;;;;;;18.45;6.42;;;;;;;17.43;67.56;100999.90;1888715;76;21025;-62
2021/09/11 08:00:52;;;;;;;21.65;6.97;;;;;;;17.39;67.65;101000.17;1888622;76;21029;-62
2021/09/11 08:03:20;;;;;;;20.48;6.15;;;;;;;17.34;67.82;100990.68;1888585;76;21033;-62
2021/09/11 08:05:48;;;;;;;24.77;8.03;;;;;;;17.31;67.91;100990.02;1888578;76;21418;-62
2021/09/11 08:08:17;;;;;;;21.10;7.97;;;;;;;17.28;67.96;100990.20;1888596;76;21021;-62
2021/09/11 08:10:46;;;;;;;26.52;9.40;;;;;;;17.23;68.03;100990.52;1888603;76;21057;-62
2021/09/11 08:13:21;;;;;;;22.15;9.55;;;;;;;17.19;68.08;100983.68;1888493;76;21057;-63
2021/09/11 08:15:45;;;;;;;25.15;8.33;;;;;;;17.17;68.30;100981.56;1887615;76;21128;-64
2021/09/11 08:18:14;;;;;;;19.40;7.67;;;;;;;17.16;68.35;100979.87;1888691;76;21611;-63
2021/09/11 08:20:42;;;;;;;24.25;9.25;;;;;;;17.13;68.46;100976.06;1888673;76;21138;-65
2021/09/11 08:23:11;;;;;;;21.30;9.00;;;;;;;17.11;68.63;100981.95;1888781;76;21102;-65
2021/09/11 08:25:40;;;;;;;11.70;5.28;;;;;;;17.10;68.80;100978.94;1888722;76;21037;-64
2021/09/11 08:28:09;;;;;;;14.05;5.33;;;;;;;17.10;68.87;100977.61;1888677;76;21022;-64
2021/09/11 08:30:37;;;;;;;10.63;4.55;;;;;;;17.14;68.90;100981.77;1888674;76;21046;-64
2021/09/11 08:33:06;;;;;;;18.20;5.42;;;;;;;17.19;68.90;100962.39;1888707;76;21057;-64
2021/09/11 08:35:35;;;;;;;12.47;3.77;;;;;;;17.27;68.81;100957.42;1888780;76;21021;-64
2021/09/11 08:38:03;;;;;;;13.40;4.95;;;;;;;17.36;68.73;100952.00;1888648;76;21029;-64
2021/09/11 08:40:33;;;;;;;12.53;4.35;;;;;;;17.48;68.66;100944.53;1888693;76;21022;-62
2021/09/11 08:43:02;;;;;;;11.57;4.05;;;;;;;17.63;68.71;100953.36;1888649;76;21461;-63
2021/09/11 08:45:31;;;;;;;9.60;4.92;;;;;;;17.71;68.45;100967.02;1888698;76;21487;-62
2021/09/11 08:48:02;;;;;;;9.28;3.92;;;;;;;17.71;68.11;100977.66;1888501;76;21550;-63
2021/09/11 08:50:30;;;;;;;12.40;5.22;;;;;;;17.71;68.04;100975.00;1888724;76;21143;-62
2021/09/11 08:52:59;;;;;;;12.58;5.83;;;;;;;17.74;67.90;100971.27;1888160;76;21120;-63
2021/09/11 08:55:28;;;;;;;12.07;4.80;;;;;;;17.72;67.68;100957.20;1888138;76;21065;-67
2021/09/11 08:58:05;;;;;;;17.87;6.22;;;;;;;17.71;67.49;100952.36;1888471;76;21042;-67
2021/09/11 09:00:45;;;;;;;20.10;7.72;;;;;;;17.71;67.44;100945.70;1888506;76;21191;-65
2021/09/11 09:03:44;;;;;;;22.48;7.58;;;;;;;17.75;67.50;100940.55;1871689;76;21037;-67
2021/09/11 09:06:28;;;;;;;18.62;6.35;;;;;;;17.80;67.51;100946.04;1864902;76;21050;-72
2021/09/11 09:08:59;;;;;;;17.52;6.35;;;;;;;17.87;67.41;100960.70;1888568;76;21168;-66
2021/09/11 09:11:30;;;;;;;17.42;5.28;;;;;;;17.89;67.22;100958.78;1876340;76;21246;-64
2021/09/11 09:14:04;;;;;;;9.88;3.92;;;;;;;17.90;67.08;100974.67;1855244;77;21045;-71
2021/09/11 09:16:45;;;;;;;13.70;4.53;;;;;;;17.93;66.92;100982.95;1855997;76;21556;-72
2021/09/11 09:19:16;;;;;;;13.38;5.28;;;;;;;17.95;66.73;100982.37;1856518;77;21117;-74
2021/09/11 09:21:47;;;;;;;9.38;5.10;;;;;;;18.04;66.57;100973.77;1871255;76;21158;-69
2021/09/11 09:24:21;;;;;;;12.68;4.75;;;;;;;18.16;66.41;100980.56;1888605;76;21038;-68
2021/09/11 09:26:52;;;;;;;10.93;5.10;;;;;;;18.26;66.25;100988.30;1865770;76;21560;-67
2021/09/11 09:29:22;;;;;;;12.10;5.22;;;;;;;18.35;66.11;100988.16;1854473;77;21058;-66
2021/09/11 09:31:55;;;;;;;14.23;5.03;;;;;;;18.35;65.84;101001.00;1856006;76;21172;-66
2021/09/11 09:34:36;;;;;;;11.03;5.25;;;;;;;18.37;65.75;100999.11;1856599;77;21051;-69
2021/09/11 09:37:07;;;;;;;13.85;5.47;;;;;;;18.47;65.74;100996.18;1875879;76;21076;-67
2021/09/11 09:39:45;;;;;;;11.93;5.25;;;;;;;18.65;65.71;100997.23;1888651;76;21026;-68
2021/09/11 09:42:15;;;;;;;15.83;5.30;;;;;;;18.76;65.65;100996.00;1867107;76;21038;-66
2021/09/11 09:44:53;;;;;;;9.40;5.55;;;;;;;18.85;65.65;100994.06;1856694;77;21105;-65
2021/09/11 09:47:23;;;;;;;14.33;5.75;;;;;;;18.85;65.55;100990.05;1880006;76;21457;-65
2021/09/11 09:50:07;;;;;;;12.73;5.53;;;;;;;18.80;65.65;100989.97;1892713;76;21057;-62
2021/09/11 09:52:37;;;;;;;10.03;5.25;;;;;;;18.74;65.71;100987.71;1866932;76;21104;-68
2021/09/11 09:55:07;;;;;;;16.60;8.20;;;;;;;18.68;65.84;100983.66;1861167;77;21084;-71
2021/09/11 09:57:38;;;;;;;14.38;5.85;;;;;;;18.66;65.95;100980.25;1889018;76;21101;-65
2021/09/11 10:00:08;;;;;;;13.18;5.35;;;;;;;18.68;66.12;100976.98;1894663;76;21123;-66
2021/09/11 10:02:41;;;;;;;18.32;7.00;;;;;;;18.74;66.20;100983.25;1866570;76;21034;-66
2021/09/11 10:05:16;;;;;;;23.80;7.03;;;;;;;18.84;66.20;100985.66;1860961;77;21495;-63
2021/09/11 10:07:54;;;;;;;19.65;7.70;;;;;;;18.94;66.14;100989.02;1891224;76;21355;-64
2021/09/11 10:10:31;;;;;;;24.18;9.10;;;;;;;19.06;66.08;100988.17;1893342;76;21494;-66
2021/09/11 10:13:19;;;;;;;30.10;8.75;;;;;;;19.12;65.93;100987.72;1860982;76;21044;-64
2021/09/11 10:15:53;;;;;;;23.65;8.40;;;;;;;19.21;65.79;100990.23;1862905;76;21131;-74
2021/09/11 10:18:34;;;;;;;22.87;9.68;;;;;;;19.32;65.70;100978.78;1889395;75;21010;-65
2021/09/11 10:21:28;;;;;;;30.45;10.28;;;;;;;19.38;65.64;100983.18;1894645;76;21103;-64
2021/09/11 10:24:01;;;;;;;26.93;9.38;;;;;;;19.43;65.56;100989.53;1892581;76;21061;-68
2021/09/11 10:26:52;;;;;;;25.37;9.70;;;;;;;19.41;65.62;100987.47;1894443;76;21044;-70
2021/09/11 10:29:38;;;;;;;19.32;8.50;;;;;;;19.36;65.77;100993.13;1894783;76;21077;-63
2021/09/11 10:32:28;;;;;;;15.53;7.50;;;;;;;19.34;65.85;100995.05;1891731;76;21111;-67
2021/09/11 10:35:06;;;;;;;19.32;7.00;;;;;;;19.30;65.80;100985.56;1830362;78;21065;-64
2021/09/11 10:37:40;;;;;;;19.35;7.85;;;;;;;19.33;65.87;100985.81;1860738;75;21459;-67
2021/09/11 10:40:23;;;;;;;22.67;8.95;;;;;;;19.32;65.88;100986.79;1867590;77;21339;-67
2021/09/11 10:43:10;;;;;;;17.27;8.68;;;;;;;19.31;65.94;100987.28;1832479;77;21032;-68
2021/09/11 10:46:02;;;;;;;30.17;11.20;;;;;;;19.32;65.98;100980.96;1830659;76;21031;-72
2021/09/11 10:48:44;;;;;;;16.07;8.25;;;;;;;19.36;66.00;100974.92;1867577;77;21166;-69
2021/09/11 10:51:33;;;;;;;20.00;9.10;;;;;;;19.39;65.97;100984.90;1859324;77;21131;-62
2021/09/11 10:54:07;;;;;;;31.90;9.20;;;;;;;19.41;65.97;100972.28;1835033;77;21057;-63
2021/09/11 10:56:38;;;;;;;17.50;8.93;;;;;;;19.42;65.90;100975.34;1833220;76;21124;-65
2021/09/11 10:59:19;;;;;;;17.48;7.87;;;;;;;19.43;65.86;100977.52;1830069;77;21065;-65
2021/09/11 11:02:05;;;;;;;23.12;8.25;;;;;;;19.40;65.91;100977.73;1848691;77;21060;-71
2021/09/11 11:04:40;;;;;;;16.27;7.12;;;;;;;19.40;65.86;100974.60;1867580;77;21553;-69
2021/09/11 11:07:11;;;;;;;23.20;7.75;;;;;;;19.43;65.86;100968.17;1867249;77;21119;-68
2021/09/11 11:09:42;;;;;;;22.05;9.33;;;;;;;19.44;65.85;100969.86;1867503;76;21084;-67
2021/09/11 11:12:13;;;;;;;16.10;8.38;;;;;;;19.44;65.86;100967.19;1809294;78;21125;-67
2021/09/11 11:14:45;;;;;;;17.85;8.20;;;;;;;19.43;65.93;100965.02;1830047;76;21070;-66
2021/09/11 11:17:19;;;;;;;17.00;8.75;;;;;;;19.44;66.09;100960.52;1855715;77;21048;-67
2021/09/11 11:19:53;;;;;;;18.95;8.25;;;;;;;19.52;66.02;100962.66;1867629;77;21114;-67
2021/09/11 11:22:42;;;;;;;33.23;15.68;;;;;;;19.57;66.09;100961.34;1840007;76;21213;-67
2021/09/11 11:25:31;;;;;;;21.93;7.78;;;;;;;19.60;66.22;100955.77;1828750;78;21039;-67
2021/09/11 11:28:01;;;;;;;23.10;10.25;;;;;;;19.66;66.16;100958.00;1867324;77;21094;-63
2021/09/11 11:30:30;;;;;;;18.10;8.35;;;;;;;19.69;66.00;100956.91;1867434;75;21084;-64
2021/09/11 11:33:04;;;;;;;16.07;8.00;;;;;;;19.67;65.92;100961.52;1830426;77;21526;-65